createdAt,value
2018-07-13T02:19:42.405Z,3
2018-07-13T02:30:13.011Z,7
2018-07-13T02:34:43.297Z,10
2018-07-13T02:37:13.482Z,13
2018-07-13T02:39:13.668Z,17
2018-07-13T02:42:13.788Z,23
2018-07-13T02:43:13.842Z,27
2018-07-13T02:44:13.904Z,30
2018-07-13T02:45:13.984Z,33
2018-07-13T02:45:44.006Z,37
2018-07-13T02:46:44.073Z,40
2018-07-13T02:47:14.111Z,43
2018-07-13T02:47:44.095Z,47
2018-07-13T02:48:44.198Z,50
2018-07-13T02:49:14.226Z,53
2018-07-13T02:49:44.256Z,57
2018-07-13T02:50:14.299Z,60
2018-07-13T02:50:44.320Z,63
2018-07-13T02:51:14.357Z,70
2018-07-13T02:51:44.379Z,73
2018-07-13T02:52:14.424Z,77
2018-07-13T02:52:44.421Z,80
2018-07-13T02:53:14.458Z,83
2018-07-13T02:53:44.485Z,87
2018-07-13T02:54:14.507Z,90
2018-07-13T02:54:44.556Z,93
2018-07-13T02:55:14.613Z,97
2018-07-13T02:55:44.626Z,100
2018-07-13T02:56:14.618Z,103
2018-07-13T02:56:44.677Z,107
2018-07-13T02:57:14.698Z,110
2018-07-13T02:57:44.714Z,113
2018-07-13T02:58:14.742Z,117
2018-07-13T02:58:44.785Z,123
2018-07-13T02:59:14.797Z,130
2018-07-13T02:59:45.014Z,133
2018-07-13T03:00:14.870Z,140
2018-07-13T03:00:44.891Z,147
2018-07-13T03:01:14.916Z,153
2018-07-13T03:01:44.944Z,160
2018-07-13T03:02:14.982Z,170
2018-07-13T03:02:45.013Z,173
2018-07-13T03:03:15.109Z,190
2018-07-13T03:03:45.071Z,200
2018-07-13T03:04:15.107Z,207
2018-07-13T03:04:45.144Z,217
2018-07-13T03:05:15.168Z,227
2018-07-13T03:05:45.259Z,233
2018-07-13T03:06:15.242Z,247
2018-07-13T03:06:45.271Z,253
2018-07-13T03:07:15.329Z,267
2018-07-13T03:07:45.370Z,277
2018-07-13T03:08:15.346Z,283
2018-07-13T03:08:45.438Z,300
2018-07-13T03:09:15.492Z,320
2018-07-13T03:09:45.494Z,330
2018-07-13T03:10:15.506Z,347
2018-07-13T03:10:45.525Z,357
2018-07-13T03:11:15.596Z,367
2018-07-13T03:11:45.605Z,377
2018-07-13T03:12:15.593Z,370
2018-07-13T03:12:45.651Z,377
2018-07-13T03:13:15.663Z,393
2018-07-13T03:13:45.703Z,407
2018-07-13T03:14:15.773Z,417
2018-07-13T03:14:45.757Z,423
2018-07-13T03:15:15.785Z,440
2018-07-13T03:15:45.820Z,453
2018-07-13T03:16:15.848Z,473
2018-07-13T03:16:45.893Z,500
2018-07-13T03:17:15.907Z,520
2018-07-13T03:17:45.969Z,527
2018-07-13T03:18:15.967Z,550
2018-07-13T03:18:45.998Z,573
2018-07-13T03:19:16.025Z,600
2018-07-13T03:19:46.055Z,633
2018-07-13T03:20:16.085Z,657
2018-07-13T03:20:46.184Z,650
2018-07-13T03:21:16.178Z,677
2018-07-13T03:21:46.185Z,703
2018-07-13T03:22:16.460Z,727
2018-07-13T03:22:46.343Z,743
2018-07-13T03:23:16.283Z,747
2018-07-13T03:23:46.384Z,737
2018-07-13T03:24:46.435Z,750
2018-07-13T03:25:16.435Z,767
2018-07-13T03:25:46.455Z,777
2018-07-13T03:26:16.503Z,803
2018-07-13T03:26:46.547Z,837
2018-07-13T03:27:16.608Z,853
2018-07-13T03:27:46.595Z,887
2018-07-13T03:28:16.634Z,907
2018-07-13T03:28:46.639Z,900
2018-07-13T03:29:16.753Z,927
2018-07-13T03:29:46.689Z,940
2018-07-13T03:30:16.816Z,967
2018-07-13T03:30:46.820Z,1017
2018-07-13T03:31:16.835Z,1043
2018-07-13T03:31:46.836Z,1037
2018-07-13T03:32:16.879Z,1097
2018-07-13T03:32:46.921Z,1173
2018-07-13T03:33:16.933Z,1247
2018-07-13T03:33:46.921Z,1280
2018-07-13T03:34:47.028Z,1307
2018-07-13T03:35:17.063Z,1350
2018-07-13T03:35:47.086Z,1323
2018-07-13T03:36:47.149Z,1290
2018-07-13T03:37:17.189Z,1267
2018-07-13T03:37:47.196Z,1230
2018-07-13T03:38:17.312Z,1237
2018-07-13T03:38:47.272Z,1243
2018-07-13T03:39:17.309Z,1230
2018-07-13T03:39:47.374Z,1270
2018-07-13T03:40:17.389Z,1290
2018-07-13T03:40:47.381Z,1327
2018-07-13T03:41:17.436Z,1357
2018-07-13T03:41:47.428Z,1390
2018-07-13T03:42:17.501Z,1387
2018-07-13T03:42:47.524Z,1403
2018-07-13T03:43:17.508Z,1507
2018-07-13T03:43:47.583Z,1623
2018-07-13T03:44:17.573Z,1633
2018-07-13T03:44:47.608Z,1710
2018-07-13T03:45:17.669Z,1673
2018-07-13T03:45:47.665Z,1643
2018-07-13T03:46:17.814Z,1707
2018-07-13T03:46:47.729Z,1730
2018-07-13T03:47:17.769Z,1703
2018-07-13T03:47:47.782Z,1740
2018-07-13T03:48:17.865Z,1800
2018-07-13T03:48:47.839Z,1867
2018-07-13T03:49:17.884Z,1940
2018-07-13T03:49:47.912Z,1997
2018-07-13T03:50:17.931Z,2033
2018-07-13T03:50:47.964Z,2043
2018-07-13T03:51:18.052Z,2120
2018-07-13T03:51:48.068Z,2140
2018-07-13T03:52:18.087Z,2143
2018-07-13T03:52:48.091Z,2130
2018-07-13T03:53:18.151Z,2093
2018-07-13T03:53:48.147Z,2150
2018-07-13T03:54:18.308Z,2163
2018-07-13T03:54:48.212Z,2170
2018-07-13T03:55:18.289Z,2263
2018-07-13T03:55:48.320Z,2313
2018-07-13T03:56:18.333Z,2377
2018-07-13T03:56:48.381Z,2460
2018-07-13T03:57:18.430Z,2547
2018-07-13T03:57:48.444Z,2560
2018-07-13T03:58:18.479Z,2637
2018-07-13T03:58:48.485Z,2793
2018-07-13T03:59:18.534Z,2940
2018-07-13T03:59:48.557Z,2967
2018-07-13T04:00:18.577Z,2903
2018-07-13T04:00:48.588Z,2907
2018-07-13T04:01:18.752Z,2930
2018-07-13T04:01:48.639Z,2910
2018-07-13T04:02:18.681Z,2913
2018-07-13T04:02:48.698Z,3000
2018-07-13T04:03:18.761Z,2990
2018-07-13T04:03:48.782Z,2980
2018-07-13T04:04:18.793Z,3053
2018-07-13T04:04:48.825Z,3143
2018-07-13T04:05:18.867Z,3150
2018-07-13T04:05:48.901Z,3090
2018-07-13T04:06:18.922Z,3023
2018-07-13T04:06:49.276Z,2983
2018-07-13T04:07:18.984Z,3017
2018-07-13T04:07:49.079Z,3090
2018-07-13T04:08:19.047Z,3017
2018-07-13T04:08:49.067Z,2963
2018-07-13T04:09:19.100Z,3120
2018-07-13T04:09:49.177Z,3213
2018-07-13T04:10:19.176Z,3313
2018-07-13T04:10:49.259Z,3433
2018-07-13T04:11:19.396Z,3493
2018-07-13T04:11:49.331Z,3587
2018-07-13T04:12:19.371Z,3603
2018-07-13T04:12:50.026Z,3487
2018-07-13T04:13:19.368Z,3400
2018-07-13T04:13:49.423Z,3447
2018-07-13T04:14:19.477Z,3543
2018-07-13T04:14:49.519Z,3797
2018-07-13T04:15:19.536Z,3910
2018-07-13T04:15:49.574Z,4080
2018-07-13T04:16:19.697Z,4260
2018-07-13T04:16:49.620Z,4203
2018-07-13T04:17:19.669Z,4343
2018-07-13T04:17:49.677Z,4507
2018-07-13T04:18:19.719Z,4837
2018-07-13T04:18:49.751Z,5053
2018-07-13T04:19:19.800Z,5057
2018-07-13T04:19:49.805Z,4997
2018-07-13T04:20:19.864Z,4953
2018-07-13T04:20:49.848Z,4827
2018-07-13T04:21:20.066Z,4930
2018-07-13T04:21:49.934Z,5290
2018-07-13T04:22:19.972Z,5783
2018-07-13T04:22:49.930Z,5453
2018-07-13T04:23:20.006Z,5717
2018-07-13T04:23:49.994Z,5767
2018-07-13T04:24:20.078Z,5513
2018-07-13T04:24:50.069Z,5417
2018-07-13T04:25:20.095Z,5207
2018-07-13T04:25:50.164Z,5363
2018-07-13T04:26:20.708Z,5503
2018-07-13T04:26:50.228Z,5730
2018-07-13T04:27:20.302Z,5620
2018-07-13T04:27:50.303Z,5330
2018-07-13T04:28:20.308Z,5357
2018-07-13T04:28:50.492Z,5513
2018-07-13T04:29:20.337Z,5507
2018-07-13T04:29:50.409Z,5497
2018-07-13T04:30:20.410Z,5763
2018-07-13T04:30:50.424Z,5677
2018-07-13T04:31:20.576Z,5430
2018-07-13T04:31:50.498Z,5827
2018-07-13T04:32:20.521Z,5887
2018-07-13T04:32:50.563Z,6210
2018-07-13T04:33:20.582Z,6100
2018-07-13T04:33:50.656Z,6390
2018-07-13T04:34:20.792Z,6423
2018-07-13T04:34:50.674Z,6680
2018-07-13T04:35:20.715Z,6597
2018-07-13T04:35:50.755Z,6953
2018-07-13T04:36:21.041Z,7313
2018-07-13T04:36:50.801Z,6873
2018-07-13T04:37:20.884Z,6723
2018-07-13T04:37:50.864Z,7023
2018-07-13T04:38:20.916Z,7307
2018-07-13T04:38:50.940Z,7260
2018-07-13T04:39:20.983Z,7240
2018-07-13T04:39:50.998Z,7693
2018-07-13T04:40:21.092Z,7810
2018-07-13T04:40:51.147Z,7780
2018-07-13T04:41:21.227Z,7637
2018-07-13T04:41:51.110Z,7910
2018-07-13T04:42:21.146Z,8060
2018-07-13T04:42:51.195Z,7847
2018-07-13T04:43:21.262Z,8290
2018-07-13T04:43:51.231Z,7883
2018-07-13T04:44:21.293Z,7627
2018-07-13T04:44:51.359Z,7290
2018-07-13T04:45:21.466Z,7223
2018-07-13T04:45:51.401Z,7543
2018-07-13T04:46:21.383Z,7693
2018-07-13T04:46:51.476Z,7893
2018-07-13T04:47:21.496Z,7900
2018-07-13T04:47:52.069Z,8283
2018-07-13T04:48:22.062Z,8573
2018-07-13T04:48:52.159Z,8660
2018-07-13T04:49:22.159Z,8557
2018-07-13T04:49:53.047Z,8980
2018-07-13T04:50:22.318Z,9223
2018-07-13T04:50:52.239Z,9610
2018-07-13T04:51:22.277Z,9787
2018-07-13T04:51:52.358Z,9560
2018-07-13T04:52:23.577Z,9177
2018-07-13T04:52:52.895Z,9803
2018-07-13T04:53:22.959Z,9943
2018-07-13T04:53:52.977Z,10170
2018-07-13T04:54:23.013Z,9663
2018-07-13T04:54:52.991Z,9203
2018-07-13T04:55:23.089Z,9170
2018-07-13T04:55:53.096Z,9690
2018-07-13T04:56:23.123Z,10153
2018-07-13T04:56:53.176Z,10767
2018-07-13T04:57:23.187Z,10777
2018-07-13T04:57:53.212Z,10850
2018-07-13T04:58:23.265Z,10837
2018-07-13T04:58:53.264Z,10573
2018-07-13T04:59:23.311Z,10613
2018-07-13T04:59:53.329Z,10933
2018-07-13T05:00:23.457Z,11113
2018-07-13T05:00:53.364Z,10960
2018-07-13T05:01:23.384Z,11680
2018-07-13T05:01:53.486Z,12587
2018-07-13T05:02:23.494Z,12657
2018-07-13T05:02:53.521Z,12020
2018-07-13T05:03:23.522Z,11733
2018-07-13T05:03:53.582Z,12057
2018-07-13T05:04:23.617Z,12060
2018-07-13T05:04:53.662Z,12467
2018-07-13T05:05:23.814Z,13097
2018-07-13T05:05:53.667Z,13437
2018-07-13T05:06:23.705Z,13090
2018-07-13T05:06:53.733Z,12993
2018-07-13T05:07:23.750Z,13303
2018-07-13T05:07:53.785Z,13037
2018-07-13T05:08:23.839Z,12847
2018-07-13T05:08:53.852Z,13493
2018-07-13T05:09:23.876Z,13187
2018-07-13T05:09:53.931Z,12603
2018-07-13T05:10:24.198Z,12510
2018-07-13T05:10:53.970Z,12563
2018-07-13T05:11:23.999Z,12627
2018-07-13T05:11:54.041Z,12247
2018-07-13T05:12:24.081Z,11520
2018-07-13T05:12:54.086Z,11913
2018-07-13T05:13:24.168Z,11973
2018-07-13T05:13:54.193Z,11617
2018-07-13T05:14:24.182Z,11330
2018-07-13T05:14:54.229Z,11630
2018-07-13T05:15:24.489Z,11380
2018-07-13T05:15:54.298Z,11237
2018-07-13T05:16:24.389Z,11097
2018-07-13T05:16:54.380Z,10370
2018-07-13T05:17:24.407Z,9780
2018-07-13T05:17:54.406Z,9210
2018-07-13T05:18:24.497Z,9127
2018-07-13T05:18:54.471Z,9040
2018-07-13T05:19:24.564Z,9260
2018-07-13T05:19:54.563Z,9670
2018-07-13T05:20:24.676Z,10093
2018-07-13T05:20:54.601Z,10193
2018-07-13T05:21:24.739Z,10223
2018-07-13T05:21:54.667Z,10563
2018-07-13T05:22:24.695Z,11090
2018-07-13T05:22:54.702Z,11350
2018-07-13T05:23:24.798Z,11190
2018-07-13T05:23:54.773Z,11177
2018-07-13T05:24:24.824Z,11153
2018-07-13T05:24:54.831Z,11177
2018-07-13T05:25:24.981Z,11110
2018-07-13T05:25:54.952Z,11147
2018-07-13T05:26:24.921Z,11110
2018-07-13T05:26:54.957Z,10830
2018-07-13T05:27:25.022Z,11177
2018-07-13T05:27:55.026Z,11480
2018-07-13T05:28:25.086Z,11130
2018-07-13T05:28:55.088Z,11093
2018-07-13T05:29:25.115Z,11153
2018-07-13T05:29:55.193Z,11300
2018-07-13T05:30:25.685Z,11307
2018-07-13T05:30:55.220Z,11180
2018-07-13T05:31:25.297Z,11373
2018-07-13T05:31:55.339Z,11723
2018-07-13T05:32:25.323Z,12437
2018-07-13T05:32:55.341Z,13850
2018-07-13T05:33:25.415Z,15323
2018-07-13T05:33:55.402Z,14467
2018-07-13T05:34:25.473Z,13543
2018-07-13T05:34:55.451Z,13903
2018-07-13T05:35:25.645Z,14243
2018-07-13T05:35:55.595Z,14527
2018-07-13T05:36:25.581Z,15257
2018-07-13T05:36:55.614Z,14817
2018-07-13T05:37:25.641Z,14197
2018-07-13T05:37:55.669Z,13957
2018-07-13T05:38:25.784Z,13263
2018-07-13T05:38:55.759Z,13040
2018-07-13T05:39:25.772Z,13420
2018-07-13T05:39:55.804Z,14010
2018-07-13T05:40:26.088Z,14770
2018-07-13T05:40:55.867Z,14153
2018-07-13T05:41:25.906Z,12977
2018-07-13T05:41:55.925Z,12443
2018-07-13T05:42:25.967Z,12470
2018-07-13T05:42:55.996Z,12357
2018-07-13T05:43:26.003Z,12157
2018-07-13T05:43:56.051Z,12120
2018-07-13T05:44:26.079Z,12220
2018-07-13T05:44:56.108Z,12197
2018-07-13T05:45:26.273Z,12307
2018-07-13T05:45:56.176Z,12330
2018-07-13T05:46:26.214Z,12437
2018-07-13T05:46:56.278Z,12083
2018-07-13T05:47:26.269Z,10870
2018-07-13T05:47:56.300Z,9633
2018-07-13T05:48:26.338Z,8580
2018-07-13T05:48:56.367Z,7997
2018-07-13T05:49:26.393Z,7840
2018-07-13T05:49:56.415Z,7887
2018-07-13T05:50:26.698Z,7977
2018-07-13T05:50:56.482Z,8080
2018-07-13T05:51:26.528Z,8183
2018-07-13T05:51:56.548Z,8573
2018-07-13T05:52:26.547Z,9117
2018-07-13T05:52:56.583Z,9787
2018-07-13T05:53:26.644Z,9723
2018-07-13T05:53:56.649Z,9530
2018-07-13T05:54:26.667Z,10027
2018-07-13T05:54:56.705Z,11453
2018-07-13T05:55:26.980Z,13293
2018-07-13T05:55:57.189Z,15023
2018-07-13T05:56:27.235Z,17917
2018-07-13T05:56:57.261Z,19850
2018-07-13T05:57:27.305Z,22017
2018-07-13T05:57:57.324Z,22587
2018-07-13T05:58:27.371Z,23117
2018-07-13T05:58:57.360Z,23243
2018-07-13T05:59:27.419Z,21687
2018-07-13T05:59:57.421Z,20833
2018-07-13T06:00:27.754Z,20037
2018-07-13T06:00:57.528Z,20383
2018-07-13T06:01:27.557Z,21213
2018-07-13T06:01:57.544Z,21223
2018-07-13T06:02:27.613Z,21523
2018-07-13T06:02:57.638Z,21633
2018-07-13T06:03:27.632Z,21860
2018-07-13T06:03:57.690Z,22327
2018-07-13T06:04:27.705Z,21750
2018-07-13T06:04:57.739Z,22460
2018-07-13T06:05:27.862Z,23890
2018-07-13T06:05:57.783Z,22923
2018-07-13T06:06:27.822Z,22033
2018-07-13T06:06:57.946Z,22420
2018-07-13T06:07:27.872Z,23797
2018-07-13T06:07:57.939Z,25007
2018-07-13T06:08:27.984Z,24963
2018-07-13T06:08:57.956Z,25393
2018-07-13T06:09:27.994Z,25223
2018-07-13T06:09:58.028Z,24580
2018-07-13T06:10:28.052Z,24490
2018-07-13T06:10:58.085Z,24803
2018-07-13T06:11:28.154Z,25287
2018-07-13T06:11:58.193Z,24603
2018-07-13T06:12:28.172Z,23430
2018-07-13T06:12:58.221Z,21860
2018-07-13T06:13:28.231Z,21070
2018-07-13T06:13:58.311Z,22020
2018-07-13T06:14:28.364Z,22263
2018-07-13T06:14:58.427Z,23277
2018-07-13T06:15:28.654Z,26917
2018-07-13T06:15:58.413Z,29780
2018-07-13T06:16:28.485Z,29013
2018-07-13T06:16:58.525Z,27523
2018-07-13T06:17:28.515Z,29873
2018-07-13T06:17:58.543Z,30437
2018-07-13T06:18:28.580Z,28823
2018-07-13T06:18:58.598Z,29300
2018-07-13T06:19:28.643Z,29083
2018-07-13T06:19:58.670Z,29600
2018-07-13T06:20:28.753Z,29920
2018-07-13T06:20:58.731Z,30167
2018-07-13T06:21:28.806Z,29950
2018-07-13T06:21:58.789Z,30417
2018-07-13T06:22:28.833Z,30563
2018-07-13T06:22:58.844Z,29967
2018-07-13T06:23:28.899Z,29480
2018-07-13T06:23:58.943Z,31877
2018-07-13T06:24:28.910Z,34110
2018-07-13T06:24:58.976Z,33527
2018-07-13T06:25:29.032Z,32103
2018-07-13T06:25:59.034Z,30513
2018-07-13T06:26:29.118Z,30733
2018-07-13T06:26:59.097Z,32787
2018-07-13T06:27:29.132Z,32397
2018-07-13T06:27:59.157Z,30213
2018-07-13T06:28:29.191Z,30277
2018-07-13T06:28:59.217Z,30807
2018-07-13T06:29:29.235Z,31763
2018-07-13T06:29:59.331Z,32023
2018-07-13T06:30:29.466Z,31517
2018-07-13T06:30:59.341Z,30307
2018-07-13T06:31:29.403Z,29253
2018-07-13T06:31:59.431Z,29280
2018-07-13T06:32:29.465Z,31043
2018-07-13T06:32:59.458Z,31390
2018-07-13T06:33:29.518Z,32207
2018-07-13T06:33:59.504Z,32543
2018-07-13T06:34:29.589Z,31180
2018-07-13T06:34:59.603Z,29567
2018-07-13T06:35:29.739Z,27757
2018-07-13T06:35:59.643Z,26510
2018-07-13T06:36:29.712Z,24570
2018-07-13T06:36:59.690Z,23737
2018-07-13T06:37:29.721Z,23480
2018-07-13T06:37:59.761Z,23340
2018-07-13T06:38:29.804Z,24337
2018-07-13T06:38:59.808Z,26277
2018-07-13T06:39:29.840Z,27423
2018-07-13T06:39:59.873Z,28477
2018-07-13T06:40:30.185Z,30023
2018-07-13T06:40:59.926Z,31360
2018-07-13T06:41:29.955Z,30647
2018-07-13T06:41:59.985Z,31780
2018-07-13T06:42:30.039Z,31820
2018-07-13T06:43:00.075Z,31670
2018-07-13T06:43:30.135Z,33173
2018-07-13T06:44:00.121Z,33360
2018-07-13T06:44:30.190Z,32310
2018-07-13T06:45:00.186Z,32833
2018-07-13T06:45:30.486Z,33877
2018-07-13T06:46:01.525Z,33997
2018-07-13T06:46:30.267Z,34230
2018-07-13T06:47:00.893Z,33550
2018-07-13T06:47:30.371Z,32847
2018-07-13T06:48:01.493Z,34337
2018-07-13T06:48:30.407Z,34797
2018-07-13T06:49:01.723Z,34773
2018-07-13T06:49:30.515Z,35373
2018-07-13T06:50:01.632Z,36397
2018-07-13T06:50:30.729Z,34890
2018-07-13T06:51:01.642Z,33983
2018-07-13T06:51:30.574Z,34973
2018-07-13T06:52:00.927Z,35590
2018-07-13T06:52:30.765Z,35307
2018-07-13T06:53:01.225Z,35613
2018-07-13T06:53:30.767Z,36040
2018-07-13T06:54:01.105Z,35980
2018-07-13T06:54:30.818Z,36703
2018-07-13T06:55:01.725Z,38273
2018-07-13T06:55:30.827Z,38653
2018-07-13T06:56:01.573Z,38153
2018-07-13T06:56:30.886Z,39020
2018-07-13T06:57:01.556Z,40580
2018-07-13T06:57:30.946Z,39157
2018-07-13T06:58:01.651Z,39650
2018-07-13T06:58:31.177Z,44823
2018-07-13T06:59:01.247Z,46553
2018-07-13T06:59:31.241Z,43873
2018-07-13T07:00:02.720Z,43733
2018-07-13T07:00:31.361Z,41837
2018-07-13T07:01:01.474Z,37540
2018-07-13T07:01:31.435Z,35693
2018-07-13T07:02:01.531Z,37360
2018-07-13T07:02:31.602Z,39163
2018-07-13T07:03:01.631Z,39863
2018-07-13T07:03:31.563Z,39663
2018-07-13T07:04:01.513Z,40087
2018-07-13T07:04:31.601Z,41350
2018-07-13T07:05:01.632Z,43037
2018-07-13T07:05:31.664Z,47483
2018-07-13T07:06:01.641Z,47793
2018-07-13T07:06:31.728Z,45543
2018-07-13T07:07:01.701Z,45993
2018-07-13T07:07:31.981Z,46723
2018-07-13T07:08:01.819Z,46507
2018-07-13T07:08:31.852Z,45480
2018-07-13T07:09:01.825Z,45780
2018-07-13T07:09:31.937Z,47473
2018-07-13T07:10:02.029Z,47237
2018-07-13T07:10:31.968Z,49067
2018-07-13T07:11:01.947Z,50777
2018-07-13T07:11:32.032Z,50767
2018-07-13T07:12:02.067Z,49457
2018-07-13T07:12:32.089Z,46920
2018-07-13T07:13:02.073Z,46090
2018-07-13T07:13:32.150Z,48620
2018-07-13T07:14:02.134Z,52347
2018-07-13T07:14:32.216Z,53903
2018-07-13T07:15:02.697Z,54123
2018-07-13T07:15:32.268Z,52843
2018-07-13T07:16:02.322Z,51343
2018-07-13T07:16:32.344Z,48887
2018-07-13T07:17:02.343Z,49867
2018-07-13T07:17:32.426Z,50057
2018-07-13T07:18:02.409Z,48833
2018-07-13T07:18:32.458Z,47840
2018-07-13T07:19:02.454Z,51010
2018-07-13T07:19:32.484Z,53883
2018-07-13T07:20:02.672Z,52193
2018-07-13T07:20:32.590Z,51780
2018-07-13T07:21:02.586Z,52913
2018-07-13T07:21:32.595Z,51617
2018-07-13T07:22:02.657Z,50107
2018-07-13T07:22:32.671Z,49920
2018-07-13T07:23:02.741Z,51377
2018-07-13T07:23:32.752Z,49073
2018-07-13T07:24:02.824Z,45170
2018-07-13T07:24:32.916Z,44387
2018-07-13T07:25:02.988Z,47267
2018-07-13T07:25:32.837Z,49713
2018-07-13T07:26:02.884Z,53933
2018-07-13T07:26:32.903Z,53940
2018-07-13T07:27:03.038Z,53843
2018-07-13T07:27:32.964Z,56433
2018-07-13T07:28:02.997Z,56990
2018-07-13T07:28:33.043Z,53340
2018-07-13T07:29:03.052Z,49860
2018-07-13T07:29:33.142Z,48277
2018-07-13T07:30:03.236Z,47337
2018-07-13T07:30:33.153Z,46213
2018-07-13T07:31:03.204Z,47653
2018-07-13T07:31:33.222Z,46957
2018-07-13T07:32:03.276Z,46020
2018-07-13T07:32:33.292Z,45613
2018-07-13T07:33:03.308Z,46753
2018-07-13T07:33:33.371Z,49753
2018-07-13T07:34:03.374Z,50360
2018-07-13T07:34:33.454Z,47140
2018-07-13T07:35:03.587Z,49800
2018-07-13T07:35:33.504Z,50490
2018-07-13T07:36:03.522Z,49103
2018-07-13T07:36:33.567Z,48640
2018-07-13T07:37:03.555Z,49257
2018-07-13T07:37:33.572Z,52750
2018-07-13T07:38:03.622Z,51157
2018-07-13T07:38:33.801Z,47427
2018-07-13T07:39:03.713Z,47387
2018-07-13T07:39:33.715Z,48587
2018-07-13T07:40:03.860Z,52063
2018-07-13T07:40:33.760Z,49907
2018-07-13T07:41:03.794Z,47307
2018-07-13T07:41:33.825Z,52337
2018-07-13T07:42:03.853Z,60553
2018-07-13T07:42:33.887Z,56993
2018-07-13T07:43:03.916Z,57890
2018-07-13T07:43:33.953Z,46293
2018-07-13T07:44:03.999Z,43967
2018-07-13T07:44:34.007Z,44340
2018-07-13T07:45:04.177Z,49077
2018-07-13T07:45:34.064Z,71717
2018-07-13T07:46:04.101Z,46460
2018-07-13T07:46:34.134Z,77650
2018-07-13T07:47:04.199Z,54900
2018-07-13T07:47:34.195Z,83593
2018-07-13T07:48:04.260Z,58237
2018-07-13T07:48:34.257Z,37473
2018-07-13T07:49:04.361Z,36697
2018-07-13T07:49:34.367Z,33997
2018-07-13T07:50:04.604Z,30680
2018-07-13T07:50:34.436Z,34320
2018-07-13T07:51:04.423Z,33543
2018-07-13T07:51:34.506Z,33753
2018-07-13T07:52:04.468Z,35300
2018-07-13T07:52:34.551Z,33427
2018-07-13T07:53:04.566Z,31403
2018-07-13T07:53:34.615Z,38070
2018-07-13T07:54:04.653Z,41840
2018-07-13T07:54:34.673Z,50947
2018-07-13T07:55:04.847Z,46190
2018-07-13T07:55:34.736Z,47637
2018-07-13T07:56:04.768Z,58513
2018-07-13T07:56:34.802Z,70573
2018-07-13T07:57:04.809Z,74063
2018-07-13T07:57:34.867Z,69380
2018-07-13T07:58:04.889Z,79220
2018-07-13T07:58:34.915Z,78483
2018-07-13T07:59:05.115Z,85207
2018-07-13T07:59:35.139Z,90987
2018-07-13T08:00:05.261Z,89023
2018-07-13T08:00:35.182Z,89847
2018-07-13T08:01:05.211Z,80757
2018-07-13T08:01:35.230Z,95537
2018-07-13T08:02:05.276Z,71147
2018-07-13T08:02:35.321Z,57410
2018-07-13T08:03:05.326Z,79190
2018-07-13T08:03:35.332Z,67420
2018-07-13T08:04:05.408Z,74087
2018-07-13T08:04:35.418Z,72080
2018-07-13T08:05:05.579Z,74620
2018-07-13T08:05:35.454Z,85217
2018-07-13T08:06:05.567Z,72307
2018-07-13T08:06:35.641Z,70967
2018-07-13T08:07:06.039Z,93000
2018-07-13T08:07:35.652Z,94503
2018-07-13T08:08:05.600Z,105547
2018-07-13T08:08:35.641Z,97707
2018-07-13T08:09:05.716Z,100840
2018-07-13T08:09:35.695Z,98510
2018-07-13T08:10:05.840Z,101077
2018-07-13T08:10:35.773Z,105267
2018-07-13T08:11:05.787Z,106070
2018-07-13T08:11:35.822Z,107357
2018-07-13T08:12:05.843Z,96923
2018-07-13T08:12:35.881Z,98293
2018-07-13T08:13:05.941Z,107550
2018-07-13T08:13:36.014Z,106877
2018-07-13T08:14:06.125Z,90207
2018-07-13T08:14:36.113Z,88910
2018-07-13T08:15:06.152Z,57650
2018-07-13T08:15:36.117Z,62680
2018-07-13T08:16:06.101Z,57760
2018-07-13T08:16:36.176Z,51530
2018-07-13T08:17:06.162Z,53087
2018-07-13T08:17:36.205Z,55100
2018-07-13T08:18:06.212Z,60830
2018-07-13T08:18:36.319Z,60383
2018-07-13T08:19:06.309Z,58347
2018-07-13T08:19:36.363Z,60453
2018-07-13T08:20:06.416Z,69010
2018-07-13T08:20:36.373Z,52290
2018-07-13T08:21:06.472Z,71697
2018-07-13T08:21:36.490Z,65647
2018-07-13T08:22:06.514Z,75230
2018-07-13T08:22:36.495Z,59953
2018-07-13T08:23:06.608Z,68010
2018-07-13T08:23:36.562Z,53110
2018-07-13T08:24:06.615Z,51497
2018-07-13T08:24:36.674Z,50700
2018-07-13T08:25:06.652Z,64453
2018-07-13T08:25:36.685Z,89273
2018-07-13T08:26:06.708Z,62857
2018-07-13T08:26:36.777Z,90227
2018-07-13T08:27:06.769Z,84633
2018-07-13T08:27:36.803Z,86967
2018-07-13T08:28:06.831Z,119473
2018-07-13T08:28:36.862Z,110800
2018-07-13T08:29:06.894Z,103940
2018-07-13T08:29:36.924Z,106757
2018-07-13T08:30:06.966Z,122577
2018-07-13T08:30:36.988Z,114223
2018-07-13T08:31:07.016Z,83010
2018-07-13T08:31:37.050Z,130910
2018-07-13T08:32:07.086Z,99080
2018-07-13T08:32:37.161Z,91857
2018-07-13T08:33:07.239Z,117577
2018-07-13T08:33:37.189Z,94540
2018-07-13T08:34:07.203Z,129973
2018-07-13T08:34:37.257Z,107773
2018-07-13T08:35:07.280Z,120057
2018-07-13T08:35:37.467Z,122587
2018-07-13T08:36:07.361Z,112053
2018-07-13T08:36:37.412Z,111067
2018-07-13T08:37:07.401Z,102923
2018-07-13T08:37:37.498Z,113880
2018-07-13T08:38:07.477Z,134140
2018-07-13T08:38:37.533Z,115937
2018-07-13T08:39:07.553Z,54467
2018-07-13T08:39:37.616Z,44590
2018-07-13T08:40:07.631Z,44500
2018-07-13T08:40:37.911Z,54800
2018-07-13T08:41:07.671Z,77067
2018-07-13T08:41:37.714Z,128067
2018-07-13T08:42:07.726Z,126630
2018-07-13T08:42:37.842Z,117663
2018-07-13T08:43:07.766Z,113393
2018-07-13T08:43:37.844Z,52483
2018-07-13T08:44:07.927Z,63223
2018-07-13T08:44:37.907Z,112743
2018-07-13T08:45:07.926Z,120100
2018-07-13T08:45:38.169Z,95460
2018-07-13T08:46:07.981Z,120370
2018-07-13T08:46:38.038Z,119977
2018-07-13T08:47:08.037Z,105103
2018-07-13T08:47:38.090Z,118370
2018-07-13T08:48:08.109Z,118483
2018-07-13T08:48:38.190Z,119830
2018-07-13T08:49:08.181Z,115993
2018-07-13T08:49:38.232Z,116390
2018-07-13T08:50:08.222Z,117073
2018-07-13T08:50:38.285Z,117567
2018-07-13T08:51:08.316Z,116453
2018-07-13T08:51:38.356Z,116727
2018-07-13T08:52:08.350Z,117537
2018-07-13T08:52:38.383Z,117317
2018-07-13T08:53:08.419Z,116377
2018-07-13T08:53:38.483Z,116743
2018-07-13T08:54:08.473Z,118033
2018-07-13T08:54:38.482Z,117387
2018-07-13T08:55:08.539Z,118237
2018-07-13T08:55:38.536Z,116783
2018-07-13T08:56:08.643Z,117733
2018-07-13T08:56:38.596Z,117867
2018-07-13T08:57:08.671Z,117963
2018-07-13T08:57:38.660Z,116700
2018-07-13T08:58:08.736Z,118937
2018-07-13T08:58:38.723Z,119390
2018-07-13T08:59:08.755Z,119260
2018-07-13T08:59:38.778Z,119610
2018-07-13T09:00:08.806Z,120787
2018-07-13T09:00:38.836Z,118603
2018-07-13T09:01:08.866Z,121480
2018-07-13T09:01:38.932Z,119527
2018-07-13T09:02:08.935Z,119643
2018-07-13T09:02:38.960Z,120540
2018-07-13T09:03:08.999Z,122757
2018-07-13T09:03:39.102Z,122787
2018-07-13T09:04:09.076Z,120317
2018-07-13T09:04:39.140Z,121663
2018-07-13T09:05:09.250Z,122453
2018-07-13T09:05:39.268Z,120660
2018-07-13T09:06:09.232Z,122273
2018-07-13T09:06:39.241Z,125020
2018-07-13T09:07:09.291Z,124223
2018-07-13T09:07:39.334Z,123717
2018-07-13T09:08:09.351Z,123673
2018-07-13T09:08:39.382Z,123073
2018-07-13T09:09:09.409Z,122983
2018-07-13T09:09:39.428Z,125413
2018-07-13T09:10:09.566Z,124257
2018-07-13T09:10:39.577Z,125550
2018-07-13T09:11:09.516Z,126063
2018-07-13T09:11:39.575Z,126113
2018-07-13T09:12:09.569Z,125503
2018-07-13T09:12:39.639Z,124637
2018-07-13T09:13:09.608Z,125373
2018-07-13T09:13:39.686Z,125607
2018-07-13T09:14:09.719Z,125867
2018-07-13T09:14:39.726Z,126527
2018-07-13T09:15:09.897Z,126347